createdAt,value
2022-08-17T00:00:33.355Z,97825.84
2022-08-17T00:03:11.478Z,97815.72
2022-08-17T00:05:43.875Z,97800.31
2022-08-17T00:08:14.630Z,97813.09
2022-08-17T00:10:44.561Z,97811.41
2022-08-17T00:13:18.865Z,97805.56
2022-08-17T00:15:46.722Z,97814.03
2022-08-17T00:19:00.382Z,97811.47
2022-08-17T00:21:10.474Z,97826.00
2022-08-17T00:23:47.788Z,97818.72
2022-08-17T00:26:43.442Z,97826.13
2022-08-17T00:29:07.646Z,97822.56
2022-08-17T00:31:37.811Z,97828.47
2022-08-17T00:34:08.895Z,97827.34
2022-08-17T00:36:36.401Z,97820.59
2022-08-17T00:39:05.087Z,97832.03
2022-08-17T00:41:32.824Z,97823.00
2022-08-17T00:44:02.633Z,97823.19
2022-08-17T00:46:36.948Z,97821.31
2022-08-17T00:49:06.220Z,97820.31
2022-08-17T00:51:44.447Z,97827.44
2022-08-17T00:54:20.863Z,97829.06
2022-08-17T00:56:53.097Z,97828.94
2022-08-17T00:59:24.179Z,97827.44
2022-08-17T01:01:52.323Z,97825.34
2022-08-17T01:04:22.713Z,97825.75
2022-08-17T01:06:51.302Z,97828.41
2022-08-17T01:09:19.752Z,97822.56
2022-08-17T01:11:53.248Z,97826.31
2022-08-17T01:14:23.762Z,97827.56
2022-08-17T01:16:54.578Z,97826.78
2022-08-17T01:19:26.332Z,97830.81
2022-08-17T01:21:57.486Z,97829.25
2022-08-17T01:24:25.068Z,97823.50
2022-08-17T01:26:52.009Z,97832.34
2022-08-17T01:29:22.015Z,97831.97
2022-08-17T01:31:58.038Z,97834.50
2022-08-17T01:34:28.210Z,97831.13
2022-08-17T01:37:10.071Z,97830.56
2022-08-17T01:39:44.502Z,97824.50
2022-08-17T01:42:23.561Z,97823.41
2022-08-17T01:44:57.052Z,97816.94
2022-08-17T01:47:24.348Z,97819.09
2022-08-17T01:49:51.313Z,97828.13
2022-08-17T01:52:19.259Z,97822.47
2022-08-17T01:54:47.828Z,97829.75
2022-08-17T01:57:15.293Z,97835.19
2022-08-17T01:59:42.669Z,97838.47
2022-08-17T02:02:10.415Z,97836.34
2022-08-17T02:04:37.368Z,97834.00
2022-08-17T02:07:05.474Z,97845.38
2022-08-17T02:09:32.477Z,97840.28
2022-08-17T02:12:38.358Z,97838.31
2022-08-17T02:14:52.038Z,97842.66
2022-08-17T02:17:18.989Z,97843.59
2022-08-17T02:19:46.199Z,97844.91
2022-08-17T02:22:13.728Z,97842.44
2022-08-17T02:25:00.858Z,97852.97
2022-08-17T02:27:29.604Z,97845.81
2022-08-17T02:29:56.539Z,97847.25
2022-08-17T02:32:28.061Z,97834.81
2022-08-17T02:34:57.773Z,97834.44
2022-08-17T02:37:26.139Z,97841.78
2022-08-17T02:39:53.616Z,97842.66
2022-08-17T02:42:28.068Z,97839.53
2022-08-17T02:44:55.407Z,97841.72
2022-08-17T02:47:22.480Z,97842.81
2022-08-17T02:49:55.382Z,97842.94
2022-08-17T02:52:53.520Z,97845.75
2022-08-17T02:55:15.652Z,97843.50
2022-08-17T02:57:43.572Z,97848.97
2022-08-17T03:00:18.437Z,97834.94
2022-08-17T03:02:45.948Z,97845.84
2022-08-17T03:05:16.411Z,97844.25
2022-08-17T03:07:45.898Z,97840.56
2022-08-17T03:10:14.566Z,97835.88
2022-08-17T03:12:43.479Z,97831.16
2022-08-17T03:15:27.686Z,97836.81
2022-08-17T03:17:56.817Z,97840.94
2022-08-17T03:20:25.029Z,97843.53
2022-08-17T03:22:55.843Z,97845.78
2022-08-17T03:25:34.412Z,97849.59
2022-08-17T03:28:02.311Z,97839.94
2022-08-17T03:30:29.731Z,97851.19
2022-08-17T03:33:00.204Z,97850.72
2022-08-17T03:35:31.067Z,97851.44
2022-08-17T03:38:00.792Z,97846.38
2022-08-17T03:40:55.691Z,97847.22
2022-08-17T03:43:18.310Z,97840.47
2022-08-17T03:46:03.614Z,97849.28
2022-08-17T03:48:52.523Z,97849.66
2022-08-17T03:51:42.084Z,97841.91
2022-08-17T03:54:29.376Z,97847.06
2022-08-17T03:57:06.478Z,97861.59
2022-08-17T03:59:35.282Z,97859.69
2022-08-17T04:02:09.670Z,97860.47
2022-08-17T04:04:38.358Z,97860.47
2022-08-17T04:07:06.292Z,97856.88
2022-08-17T04:09:33.666Z,97869.38
2022-08-17T04:12:04.728Z,97872.31
2022-08-17T04:14:51.841Z,97875.53
2022-08-17T04:17:27.149Z,97881.75
2022-08-17T04:19:55.575Z,97885.78
2022-08-17T04:22:33.039Z,97883.69
2022-08-17T04:25:05.266Z,97884.06
2022-08-17T04:27:32.808Z,97887.38
2022-08-17T04:29:59.829Z,97890.50
2022-08-17T04:33:03.989Z,97901.13
2022-08-17T04:35:22.978Z,97900.44
2022-08-17T04:37:51.410Z,97905.16
2022-08-17T04:40:39.408Z,97897.28
2022-08-17T04:43:29.089Z,97903.28
2022-08-17T04:46:02.497Z,97912.41
2022-08-17T04:48:36.512Z,97905.84
2022-08-17T04:51:19.679Z,97907.97
2022-08-17T04:53:54.570Z,97909.78
2022-08-17T04:56:24.118Z,97920.09
2022-08-17T04:58:53.762Z,97904.59
2022-08-17T05:01:24.003Z,97916.66
2022-08-17T05:03:58.189Z,97907.47
2022-08-17T05:06:26.971Z,97912.28
2022-08-17T05:08:54.633Z,97913.28
2022-08-17T05:11:23.558Z,97908.47
2022-08-17T05:13:50.557Z,97912.72
2022-08-17T05:16:19.995Z,97910.84
2022-08-17T05:18:47.649Z,97907.16
2022-08-17T05:21:15.690Z,97915.22
2022-08-17T05:23:43.799Z,97913.22
2022-08-17T05:26:25.694Z,97909.03
2022-08-17T05:28:59.781Z,97924.47
2022-08-17T05:31:30.908Z,97921.41
2022-08-17T05:33:58.084Z,97913.41
2022-08-17T05:36:41.592Z,97920.13
2022-08-17T05:39:15.868Z,97921.81
2022-08-17T05:41:48.010Z,97909.50
2022-08-17T05:44:16.900Z,97917.44
2022-08-17T05:46:50.295Z,97924.69
2022-08-17T05:49:23.989Z,97921.88
2022-08-17T05:52:00.271Z,97925.75
2022-08-17T05:54:57.771Z,97926.44
2022-08-17T05:57:57.017Z,97926.25
2022-08-17T06:00:35.861Z,97924.97
2022-08-17T06:03:19.054Z,97932.19
2022-08-17T06:05:49.919Z,97933.28
2022-08-17T06:08:17.852Z,97921.53
2022-08-17T06:11:21.006Z,97931.50
2022-08-17T06:13:58.896Z,97933.00
2022-08-17T06:16:34.280Z,97929.22
2022-08-17T06:19:17.777Z,97925.41
2022-08-17T06:21:49.174Z,97922.25
2022-08-17T06:24:25.121Z,97921.81
2022-08-17T06:26:54.271Z,97922.25
2022-08-17T06:29:27.222Z,97928.81
2022-08-17T06:31:54.575Z,97926.47
2022-08-17T06:34:22.185Z,97922.06
2022-08-17T06:37:27.548Z,97920.56
2022-08-17T06:40:33.304Z,97917.38
2022-08-17T06:43:34.121Z,97914.56
2022-08-17T06:46:18.547Z,97918.31
2022-08-17T06:48:52.480Z,97918.28
2022-08-17T06:51:33.753Z,97919.06
2022-08-17T06:54:10.531Z,97905.50
2022-08-17T06:56:54.155Z,97904.78
2022-08-17T06:59:56.397Z,97914.59
2022-08-17T07:02:55.894Z,97914.88
2022-08-17T07:05:31.045Z,97904.09
2022-08-17T07:08:29.180Z,97909.22
2022-08-17T07:11:03.159Z,97901.06
2022-08-17T07:13:55.671Z,97909.56
2022-08-17T07:16:32.675Z,97903.88
2022-08-17T07:19:00.639Z,97906.13
2022-08-17T07:21:52.088Z,97899.28
2022-08-17T07:24:41.836Z,97912.50
2022-08-17T07:27:27.774Z,97912.06
2022-08-17T07:29:59.404Z,97922.34
2022-08-17T07:32:31.915Z,97911.25
2022-08-17T07:35:19.939Z,97900.19
2022-08-17T07:37:54.234Z,97900.09
2022-08-17T07:40:28.880Z,97906.34
2022-08-17T07:43:15.633Z,97902.00
2022-08-17T07:46:22.011Z,97899.97
2022-08-17T07:48:54.372Z,97907.09
2022-08-17T07:51:31.619Z,97902.78
2022-08-17T07:54:14.020Z,97891.41
2022-08-17T07:56:56.696Z,97889.03
2022-08-17T07:59:28.676Z,97901.19
2022-08-17T08:02:18.381Z,97900.44
2022-08-17T08:05:29.932Z,97893.50
2022-08-17T08:08:18.979Z,97889.78
2022-08-17T08:11:01.877Z,97890.94
2022-08-17T08:13:32.661Z,97880.50
2022-08-17T08:16:20.026Z,97878.34
2022-08-17T08:18:54.843Z,97878.19
2022-08-17T08:21:47.289Z,97880.84
2022-08-17T08:24:31.536Z,97877.84
2022-08-17T08:27:07.336Z,97875.72
2022-08-17T08:30:05.118Z,97877.19
2022-08-17T08:32:50.287Z,97866.84
2022-08-17T08:35:40.683Z,97871.56
2022-08-17T08:38:25.569Z,97864.13
2022-08-17T08:41:07.057Z,97864.09
2022-08-17T08:44:07.013Z,97862.06
2022-08-17T08:47:28.580Z,97859.19
2022-08-17T08:50:38.208Z,97859.84
2022-08-17T08:53:25.587Z,97854.72
2022-08-17T08:56:06.803Z,97849.13
2022-08-17T08:58:56.151Z,97843.69
2022-08-17T09:01:23.952Z,97848.06
2022-08-17T09:04:25.748Z,97848.59
2022-08-17T09:07:01.758Z,97846.00
2022-08-17T09:10:08.308Z,97834.28
2022-08-17T09:13:09.168Z,97841.06
2022-08-17T09:15:48.627Z,97847.47
2022-08-17T09:19:00.223Z,97844.94
2022-08-17T09:21:50.738Z,97828.25
2022-08-17T09:24:43.459Z,97834.03
2022-08-17T09:27:20.781Z,97834.03
2022-08-17T09:30:02.773Z,97827.81
2022-08-17T09:32:57.438Z,97828.06
2022-08-17T09:35:37.026Z,97830.00
2022-08-17T09:38:35.619Z,97824.09
2022-08-17T09:41:31.527Z,97827.22
2022-08-17T09:44:26.399Z,97826.53
2022-08-17T09:46:56.164Z,97829.38
2022-08-17T09:49:35.676Z,97826.00
2022-08-17T09:52:24.899Z,97826.06
2022-08-17T09:54:55.348Z,97824.28
2022-08-17T09:57:40.948Z,97822.66
2022-08-17T10:00:17.324Z,97826.13
2022-08-17T10:03:22.258Z,97817.44
2022-08-17T10:06:09.101Z,97821.84
2022-08-17T10:08:40.802Z,97813.38
2022-08-17T10:11:52.229Z,97814.94
2022-08-17T10:14:37.887Z,97808.88
2022-08-17T10:17:15.034Z,97807.09
2022-08-17T10:19:54.099Z,97808.09
2022-08-17T10:23:00.430Z,97800.63
2022-08-17T10:25:55.032Z,97800.16
2022-08-17T10:28:30.320Z,97797.28
2022-08-17T10:31:30.859Z,97784.56
2022-08-17T10:34:08.228Z,97782.28
2022-08-17T10:36:50.262Z,97779.75
2022-08-17T10:39:34.755Z,97771.13
2022-08-17T10:42:32.427Z,97781.56
2022-08-17T10:45:16.893Z,97780.50
2022-08-17T10:48:05.823Z,97764.66
2022-08-17T10:51:03.668Z,97779.56
2022-08-17T10:53:33.701Z,97771.56
2022-08-17T10:56:15.194Z,97767.69
2022-08-17T10:58:54.474Z,97767.78
2022-08-17T11:01:47.744Z,97765.88
2022-08-17T11:04:42.038Z,97761.44
2022-08-17T11:07:44.089Z,97763.47
2022-08-17T11:11:04.455Z,97757.91
2022-08-17T11:14:09.442Z,97750.66
2022-08-17T11:17:01.688Z,97750.38
2022-08-17T11:19:53.021Z,97743.41
2022-08-17T11:22:33.602Z,97739.78
2022-08-17T11:25:20.801Z,97724.22
2022-08-17T11:27:54.011Z,97727.84
2022-08-17T11:42:27.092Z,97717.66
2022-08-17T11:48:27.044Z,97715.56
2022-08-17T11:51:19.125Z,97713.50
2022-08-17T11:53:46.881Z,97705.63
2022-08-17T11:56:35.206Z,97698.44
2022-08-17T11:59:23.781Z,97696.94
2022-08-17T12:01:56.805Z,97696.44
2022-08-17T12:04:32.706Z,97691.41
2022-08-17T12:07:19.375Z,97694.13
2022-08-17T12:09:50.992Z,97693.03
2022-08-17T12:12:22.899Z,97668.91
2022-08-17T12:15:12.903Z,97676.03
2022-08-17T12:17:52.025Z,97677.53
2022-08-17T12:20:40.743Z,97674.03
2022-08-17T12:23:41.947Z,97668.81
2022-08-17T12:26:22.481Z,97671.84
2022-08-17T12:28:57.445Z,97666.69
2022-08-17T12:31:35.540Z,97660.09
2022-08-17T12:34:05.127Z,97657.28
2022-08-17T12:36:33.436Z,97664.22
2022-08-17T12:39:12.852Z,97657.41
2022-08-17T12:41:50.308Z,97659.28
2022-08-17T12:44:19.551Z,97650.97
2022-08-17T12:46:54.850Z,97655.09
2022-08-17T12:49:32.605Z,97656.19
2022-08-17T12:52:20.055Z,97646.72
2022-08-17T12:55:06.810Z,97650.31
2022-08-17T12:57:44.398Z,97636.94
2022-08-17T13:00:18.174Z,97629.31
2022-08-17T13:03:19.323Z,97632.78
2022-08-17T13:05:53.080Z,97652.94
2022-08-17T13:08:38.210Z,97642.41
2022-08-17T13:11:18.862Z,97654.00
2022-08-17T13:13:56.888Z,97651.19
2022-08-17T13:16:27.798Z,97641.75
2022-08-17T13:19:15.786Z,97639.34
2022-08-17T13:21:52.109Z,97644.19
2022-08-17T13:24:26.304Z,97639.63
2022-08-17T13:27:08.157Z,97643.69
2022-08-17T13:29:44.783Z,97628.56
2022-08-17T13:32:16.495Z,97637.91
2022-08-17T13:35:12.325Z,97635.69
2022-08-17T13:37:40.688Z,97624.28
2022-08-17T13:40:09.980Z,97619.84
2022-08-17T13:42:51.629Z,97617.28
2022-08-17T13:45:35.095Z,97616.88
2022-08-17T13:48:07.681Z,97614.53
2022-08-17T13:50:37.030Z,97630.00
2022-08-17T13:53:18.110Z,97613.25
2022-08-17T13:56:08.200Z,97630.03
2022-08-17T13:58:54.954Z,97623.84
2022-08-17T14:01:41.559Z,97618.91
2022-08-17T14:04:18.872Z,97614.22
2022-08-17T14:06:54.385Z,97629.31
2022-08-17T14:09:29.206Z,97627.38
2022-08-17T14:11:59.673Z,97612.94
2022-08-17T14:14:27.595Z,97613.97
2022-08-17T14:16:57.279Z,97604.63
2022-08-17T14:19:25.464Z,97605.19
2022-08-17T14:21:59.321Z,97593.63
2022-08-17T14:24:39.991Z,97594.88
2022-08-17T14:27:10.323Z,97604.28
2022-08-17T14:29:37.277Z,97610.00
2022-08-17T14:32:17.639Z,97600.00
2022-08-17T14:34:46.192Z,97606.50
2022-08-17T14:37:13.596Z,97599.66
2022-08-17T14:39:41.110Z,97609.69
2022-08-17T14:42:11.520Z,97610.94
2022-08-17T14:44:39.752Z,97612.41
2022-08-17T14:47:12.784Z,97600.56
2022-08-17T14:49:40.038Z,97602.72
2022-08-17T14:52:07.309Z,97599.00
2022-08-17T14:54:34.797Z,97602.41
2022-08-17T14:57:22.495Z,97603.34
2022-08-17T14:59:54.643Z,97594.91
2022-08-17T15:02:29.268Z,97612.44
2022-08-17T15:05:03.221Z,97602.31
2022-08-17T15:07:32.477Z,97603.16
2022-08-17T15:10:02.905Z,97604.88
2022-08-17T15:12:33.998Z,97600.34
2022-08-17T15:15:06.605Z,97594.88
2022-08-17T15:17:44.397Z,97602.91
2022-08-17T15:20:27.689Z,97599.66
2022-08-17T15:22:57.565Z,97591.78
2022-08-17T15:25:27.799Z,97599.03
2022-08-17T15:27:56.068Z,97599.50
2022-08-17T15:30:23.857Z,97586.53
2022-08-17T15:32:55.044Z,97592.00
2022-08-17T15:35:28.042Z,97592.00
2022-08-17T15:38:12.137Z,97592.53
2022-08-17T15:40:46.239Z,97596.28
2022-08-17T15:43:24.799Z,97603.69
2022-08-17T15:46:04.598Z,97592.13
2022-08-17T15:48:43.757Z,97587.28
2022-08-17T15:51:27.209Z,97594.19
2022-08-17T15:54:04.598Z,97592.19
2022-08-17T15:56:47.055Z,97597.97
2022-08-17T15:59:14.277Z,97593.53
2022-08-17T16:03:04.649Z,97596.50
2022-08-17T16:04:29.986Z,97589.88
2022-08-17T16:06:59.368Z,97592.94
2022-08-17T16:09:27.304Z,97594.34
2022-08-17T16:11:56.418Z,97598.69
2022-08-17T16:14:32.342Z,97605.03
2022-08-17T16:17:03.842Z,97593.72
2022-08-17T16:19:31.097Z,97595.19
2022-08-17T16:21:58.644Z,97587.69
2022-08-17T16:24:26.249Z,97595.22
2022-08-17T16:26:55.501Z,97591.31
2022-08-17T16:29:23.130Z,97600.44
2022-08-17T16:31:51.684Z,97600.78
2022-08-17T16:34:19.119Z,97600.69
2022-08-17T16:36:55.110Z,97603.31
2022-08-17T16:39:29.467Z,97605.63
2022-08-17T16:41:57.620Z,97603.25
2022-08-17T16:44:26.007Z,97611.09
2022-08-17T16:46:53.973Z,97615.56
2022-08-17T16:49:35.466Z,97607.44
2022-08-17T16:52:05.128Z,97604.47
2022-08-17T16:54:32.712Z,97608.28
2022-08-17T16:56:59.675Z,97614.63
2022-08-17T16:59:38.776Z,97623.19
2022-08-17T17:02:12.885Z,97621.53
2022-08-17T17:04:48.189Z,97617.31
2022-08-17T17:07:44.229Z,97622.97
2022-08-17T17:10:15.579Z,97631.03
2022-08-17T17:13:02.835Z,97622.56
2022-08-17T17:16:01.257Z,97631.22
2022-08-17T17:18:56.278Z,97625.91
2022-08-17T17:21:31.573Z,97629.72
2022-08-17T17:24:10.423Z,97632.84
2022-08-17T17:27:21.296Z,97634.81
2022-08-17T17:30:04.358Z,97639.75
2022-08-17T17:32:39.660Z,97644.34
2022-08-17T17:35:16.007Z,97645.16
2022-08-17T17:37:46.291Z,97647.38
2022-08-17T17:40:20.770Z,97648.16
2022-08-17T17:42:51.536Z,97641.41
2022-08-17T17:45:26.500Z,97644.59
2022-08-17T17:47:53.809Z,97650.06
2022-08-17T17:50:30.417Z,97651.56
2022-08-17T17:53:10.026Z,97660.59
2022-08-17T17:56:34.347Z,97658.53
2022-08-17T17:59:12.530Z,97660.34
2022-08-17T18:01:58.688Z,97672.69
2022-08-17T18:04:50.319Z,97672.63
2022-08-17T18:07:42.989Z,97682.53
2022-08-17T18:10:40.812Z,97685.00
2022-08-17T18:13:40.616Z,97687.91
2022-08-17T18:16:14.280Z,97706.78
2022-08-17T18:18:44.795Z,97700.19
2022-08-17T18:21:20.352Z,97702.25
2022-08-17T18:23:53.966Z,97711.03
2022-08-17T18:26:33.708Z,97713.53
2022-08-17T18:29:11.727Z,97720.41
2022-08-17T18:31:39.074Z,97725.72
2022-08-17T18:34:45.786Z,97735.47
2022-08-17T18:37:12.712Z,97734.97
2022-08-17T18:39:44.247Z,97732.06
2022-08-17T18:42:27.985Z,97743.19
2022-08-17T18:44:55.874Z,97737.34
2022-08-17T18:47:29.902Z,97741.56
2022-08-17T18:50:18.340Z,97743.19
2022-08-17T18:52:49.073Z,97749.16
2022-08-17T18:55:21.036Z,97753.47
2022-08-17T18:57:55.828Z,97759.09
2022-08-17T19:00:40.630Z,97759.25
2022-08-17T19:03:20.128Z,97765.16
2022-08-17T19:05:52.293Z,97764.13
2022-08-17T19:08:28.765Z,97771.63
2022-08-17T19:10:58.478Z,97769.19
2022-08-17T19:13:39.605Z,97775.56
2022-08-17T19:16:25.250Z,97785.72
2022-08-17T19:18:59.157Z,97788.03
2022-08-17T19:21:52.613Z,97790.81
2022-08-17T19:24:23.272Z,97794.50
2022-08-17T19:26:59.669Z,97788.78
2022-08-17T19:29:57.904Z,97791.75
2022-08-17T19:32:29.184Z,97794.78
2022-08-17T19:34:57.626Z,97802.16
2022-08-17T19:37:33.554Z,97803.06
2022-08-17T19:40:10.115Z,97809.50
2022-08-17T19:42:47.345Z,97809.88
2022-08-17T19:45:33.109Z,97804.50
2022-08-17T19:48:20.037Z,97809.19
2022-08-17T19:50:54.210Z,97802.94
2022-08-17T19:54:04.827Z,97802.03
2022-08-17T19:56:45.479Z,97809.38
2022-08-17T19:59:36.018Z,97807.19
2022-08-17T20:02:31.205Z,97813.09
2022-08-17T20:05:06.267Z,97808.53
2022-08-17T20:07:49.840Z,97811.03
2022-08-17T20:10:55.462Z,97823.00
2022-08-17T20:13:32.782Z,97834.13
2022-08-17T20:16:01.713Z,97828.84
2022-08-17T20:18:52.430Z,97822.16
2022-08-17T20:21:25.802Z,97832.81
2022-08-17T20:23:59.269Z,97831.97
2022-08-17T20:26:39.042Z,97832.19
2022-08-17T20:29:37.570Z,97841.56
2022-08-17T20:32:17.971Z,97848.75
2022-08-17T20:34:46.979Z,97838.03
2022-08-17T20:37:14.344Z,97847.84
2022-08-17T20:39:49.638Z,97850.25
2022-08-17T20:42:19.961Z,97845.75
2022-08-17T20:44:49.113Z,97847.75
2022-08-17T20:47:26.952Z,97845.31
2022-08-17T20:49:57.599Z,97850.97
2022-08-17T20:52:49.711Z,97857.56
2022-08-17T20:55:51.770Z,97857.66
2022-08-17T20:58:30.765Z,97865.06
2022-08-17T21:01:01.778Z,97863.00
2022-08-17T21:03:47.934Z,97867.06
2022-08-17T21:06:19.438Z,97873.25
2022-08-17T21:09:13.200Z,97873.47
2022-08-17T21:11:56.989Z,97862.47
2022-08-17T21:14:38.632Z,97864.69
2022-08-17T21:17:29.712Z,97856.03
2022-08-17T21:20:13.279Z,97865.66
2022-08-17T21:22:51.316Z,97859.31
2022-08-17T21:25:39.004Z,97863.81
2022-08-17T21:28:20.588Z,97865.41
2022-08-17T21:30:57.122Z,97866.31
2022-08-17T21:33:34.182Z,97867.63
2022-08-17T21:36:14.523Z,97874.66
2022-08-17T21:38:57.779Z,97873.22
2022-08-17T21:41:30.544Z,97876.44
2022-08-17T21:44:19.521Z,97885.09
2022-08-17T21:46:50.673Z,97876.84
2022-08-17T21:49:21.472Z,97885.94
2022-08-17T21:51:56.467Z,97880.47
2022-08-17T21:54:42.719Z,97883.44
2022-08-17T21:57:31.055Z,97886.28
2022-08-17T22:00:01.414Z,97887.13
2022-08-17T22:02:36.804Z,97887.28
2022-08-17T22:05:15.393Z,97877.63
2022-08-17T22:07:47.753Z,97874.31
2022-08-17T22:10:32.321Z,97880.28
2022-08-17T22:13:20.143Z,97880.78
2022-08-17T22:15:51.230Z,97885.09
2022-08-17T22:18:27.428Z,97885.53
2022-08-17T22:21:04.739Z,97882.59
2022-08-17T22:23:58.080Z,97881.75
2022-08-17T22:27:02.731Z,97878.22
2022-08-17T22:29:57.889Z,97877.63
2022-08-17T22:32:43.160Z,97885.88
2022-08-17T22:35:31.806Z,97887.53
2022-08-17T22:38:22.157Z,97904.47
2022-08-17T22:40:59.094Z,97891.16
2022-08-17T22:43:28.817Z,97894.16
2022-08-17T22:45:59.317Z,97886.59
2022-08-17T22:48:29.948Z,97877.69
2022-08-17T22:51:13.831Z,97882.75
2022-08-17T22:54:09.257Z,97887.00
2022-08-17T22:56:55.806Z,97882.19
2022-08-17T22:59:50.107Z,97881.09
2022-08-17T23:02:35.483Z,97872.56
2022-08-17T23:05:17.122Z,97873.63
2022-08-17T23:07:46.837Z,97869.56
2022-08-17T23:10:14.913Z,97870.78
2022-08-17T23:12:42.422Z,97878.00
2022-08-17T23:15:16.045Z,97874.56
2022-08-17T23:17:46.092Z,97872.22
2022-08-17T23:20:15.224Z,97873.03
2022-08-17T23:22:51.694Z,97878.53
2022-08-17T23:25:31.896Z,97871.56
2022-08-17T23:28:01.835Z,97867.34
2022-08-17T23:30:31.752Z,97860.59
2022-08-17T23:33:06.380Z,97860.22
2022-08-17T23:35:39.966Z,97871.28
2022-08-17T23:38:10.822Z,97854.88
2022-08-17T23:40:39.342Z,97880.88
2022-08-17T23:43:25.314Z,97884.47
2022-08-17T23:45:57.681Z,97882.84
2022-08-17T23:48:32.573Z,97879.09
2022-08-17T23:51:09.208Z,97873.88
2022-08-17T23:53:42.063Z,97867.34
2022-08-17T23:56:11.075Z,97882.31
2022-08-17T23:58:43.995Z,97869.88
